sensor_id;sensor_type;location;lat;lon;timestamp;P1;durP1;ratioP1;P2;durP2;ratioP2
49241;SDS011;35079;52.704;13.814;2023-10-09T00:02:43;2.75;;;1.30;;
49241;SDS011;35079;52.704;13.814;2023-10-09T00:05:19;2.63;;;1.75;;
49241;SDS011;35079;52.704;13.814;2023-10-09T00:11:00;2.67;;;1.75;;
49241;SDS011;35079;52.704;13.814;2023-10-09T00:13:42;2.45;;;1.50;;
49241;SDS011;35079;52.704;13.814;2023-10-09T00:16:15;1.50;;;1.40;;
49241;SDS011;35079;52.704;13.814;2023-10-09T00:18:42;3.47;;;1.40;;
49241;SDS011;35079;52.704;13.814;2023-10-09T00:21:15;2.50;;;1.65;;
49241;SDS011;35079;52.704;13.814;2023-10-09T00:23:59;1.80;;;1.40;;
49241;SDS011;35079;52.704;13.814;2023-10-09T00:26:30;2.67;;;1.70;;
49241;SDS011;35079;52.704;13.814;2023-10-09T00:29:08;3.13;;;1.70;;
49241;SDS011;35079;52.704;13.814;2023-10-09T00:31:40;2.75;;;1.70;;
49241;SDS011;35079;52.704;13.814;2023-10-09T00:34:16;4.93;;;1.60;;
49241;SDS011;35079;52.704;13.814;2023-10-09T00:36:45;4.95;;;1.30;;
49241;SDS011;35079;52.704;13.814;2023-10-09T00:39:20;3.35;;;1.70;;
49241;SDS011;35079;52.704;13.814;2023-10-09T00:44:28;4.90;;;1.77;;
49241;SDS011;35079;52.704;13.814;2023-10-09T00:47:06;1.60;;;1.38;;
49241;SDS011;35079;52.704;13.814;2023-10-09T00:49:57;4.10;;;1.60;;
49241;SDS011;35079;52.704;13.814;2023-10-09T00:52:32;1.73;;;1.30;;
49241;SDS011;35079;52.704;13.814;2023-10-09T00:55:08;3.72;;;1.30;;
49241;SDS011;35079;52.704;13.814;2023-10-09T00:58:01;5.85;;;1.52;;
49241;SDS011;35079;52.704;13.814;2023-10-09T01:00:31;3.22;;;1.40;;
49241;SDS011;35079;52.704;13.814;2023-10-09T01:02:56;2.63;;;1.70;;
49241;SDS011;35079;52.704;13.814;2023-10-09T01:05:48;6.18;;;1.30;;
49241;SDS011;35079;52.704;13.814;2023-10-09T01:08:21;4.00;;;1.77;;
49241;SDS011;35079;52.704;13.814;2023-10-09T01:11:12;4.13;;;1.52;;
49241;SDS011;35079;52.704;13.814;2023-10-09T01:14:06;1.52;;;1.35;;
49241;SDS011;35079;52.704;13.814;2023-10-09T01:16:35;2.60;;;1.60;;
49241;SDS011;35079;52.704;13.814;2023-10-09T01:19:04;3.60;;;1.58;;
49241;SDS011;35079;52.704;13.814;2023-10-09T01:21:38;1.83;;;1.42;;
49241;SDS011;35079;52.704;13.814;2023-10-09T01:24:07;1.55;;;1.45;;
49241;SDS011;35079;52.704;13.814;2023-10-09T01:29:04;3.88;;;1.70;;
49241;SDS011;35079;52.704;13.814;2023-10-09T01:31:35;3.55;;;2.00;;
49241;SDS011;35079;52.704;13.814;2023-10-09T01:34:02;2.17;;;1.48;;
49241;SDS011;35079;52.704;13.814;2023-10-09T01:36:37;3.83;;;1.77;;
49241;SDS011;35079;52.704;13.814;2023-10-09T01:39:04;6.05;;;2.05;;
49241;SDS011;35079;52.704;13.814;2023-10-09T01:41:35;2.95;;;1.60;;
49241;SDS011;35079;52.704;13.814;2023-10-09T01:44:11;3.70;;;1.60;;
49241;SDS011;35079;52.704;13.814;2023-10-09T01:46:37;2.58;;;1.70;;
49241;SDS011;35079;52.704;13.814;2023-10-09T01:49:03;3.03;;;1.50;;
49241;SDS011;35079;52.704;13.814;2023-10-09T01:51:42;3.15;;;1.63;;
49241;SDS011;35079;52.704;13.814;2023-10-09T01:54:07;2.88;;;1.73;;
49241;SDS011;35079;52.704;13.814;2023-10-09T01:56:34;2.92;;;2.00;;
49241;SDS011;35079;52.704;13.814;2023-10-09T01:59:03;4.63;;;2.05;;
49241;SDS011;35079;52.704;13.814;2023-10-09T02:01:31;2.63;;;1.70;;
49241;SDS011;35079;52.704;13.814;2023-10-09T02:03:59;3.25;;;2.03;;
49241;SDS011;35079;52.704;13.814;2023-10-09T02:06:31;4.47;;;1.80;;
49241;SDS011;35079;52.704;13.814;2023-10-09T02:08:57;3.58;;;1.90;;
49241;SDS011;35079;52.704;13.814;2023-10-09T02:11:24;2.90;;;1.70;;
49241;SDS011;35079;52.704;13.814;2023-10-09T02:14:02;4.30;;;1.70;;
49241;SDS011;35079;52.704;13.814;2023-10-09T02:16:31;4.93;;;1.80;;
49241;SDS011;35079;52.704;13.814;2023-10-09T02:19:06;3.97;;;1.88;;
49241;SDS011;35079;52.704;13.814;2023-10-09T02:21:42;6.95;;;1.60;;
49241;SDS011;35079;52.704;13.814;2023-10-09T02:24:08;2.63;;;1.80;;
49241;SDS011;35079;52.704;13.814;2023-10-09T02:26:34;5.07;;;1.80;;
49241;SDS011;35079;52.704;13.814;2023-10-09T02:29:03;4.43;;;2.10;;
49241;SDS011;35079;52.704;13.814;2023-10-09T02:31:34;4.82;;;2.28;;
49241;SDS011;35079;52.704;13.814;2023-10-09T02:34:05;2.72;;;2.00;;
49241;SDS011;35079;52.704;13.814;2023-10-09T02:36:35;5.68;;;2.03;;
49241;SDS011;35079;52.704;13.814;2023-10-09T02:39:07;5.45;;;2.28;;
49241;SDS011;35079;52.704;13.814;2023-10-09T02:41:48;3.35;;;2.00;;
49241;SDS011;35079;52.704;13.814;2023-10-09T02:44:15;3.38;;;1.90;;
49241;SDS011;35079;52.704;13.814;2023-10-09T02:46:42;5.30;;;2.00;;
49241;SDS011;35079;52.704;13.814;2023-10-09T02:49:09;3.55;;;2.13;;
49241;SDS011;35079;52.704;13.814;2023-10-09T02:51:40;3.88;;;2.20;;
49241;SDS011;35079;52.704;13.814;2023-10-09T02:54:12;5.28;;;2.10;;
49241;SDS011;35079;52.704;13.814;2023-10-09T02:56:47;4.63;;;2.22;;
49241;SDS011;35079;52.704;13.814;2023-10-09T02:59:20;4.43;;;2.38;;
49241;SDS011;35079;52.704;13.814;2023-10-09T03:01:49;3.35;;;1.75;;
49241;SDS011;35079;52.704;13.814;2023-10-09T03:04:17;7.80;;;2.13;;
49241;SDS011;35079;52.704;13.814;2023-10-09T03:06:44;4.85;;;2.50;;
49241;SDS011;35079;52.704;13.814;2023-10-09T03:09:19;3.50;;;2.17;;
49241;SDS011;35079;52.704;13.814;2023-10-09T03:12:06;3.67;;;2.72;;
49241;SDS011;35079;52.704;13.814;2023-10-09T03:14:35;5.22;;;2.30;;
49241;SDS011;35079;52.704;13.814;2023-10-09T03:17:06;11.38;;;2.67;;
49241;SDS011;35079;52.704;13.814;2023-10-09T03:19:36;7.53;;;2.70;;
49241;SDS011;35079;52.704;13.814;2023-10-09T03:22:06;4.13;;;2.45;;
49241;SDS011;35079;52.704;13.814;2023-10-09T03:24:35;5.30;;;2.80;;
49241;SDS011;35079;52.704;13.814;2023-10-09T03:27:02;4.35;;;2.45;;
49241;SDS011;35079;52.704;13.814;2023-10-09T03:29:28;5.43;;;2.80;;
49241;SDS011;35079;52.704;13.814;2023-10-09T03:31:53;4.85;;;3.05;;
49241;SDS011;35079;52.704;13.814;2023-10-09T03:34:21;5.30;;;2.78;;
49241;SDS011;35079;52.704;13.814;2023-10-09T03:36:48;7.93;;;3.10;;
49241;SDS011;35079;52.704;13.814;2023-10-09T03:39:24;3.45;;;2.22;;
49241;SDS011;35079;52.704;13.814;2023-10-09T03:42:03;6.20;;;2.70;;
49241;SDS011;35079;52.704;13.814;2023-10-09T03:44:30;7.07;;;2.78;;
49241;SDS011;35079;52.704;13.814;2023-10-09T03:47:00;3.67;;;2.50;;
49241;SDS011;35079;52.704;13.814;2023-10-09T03:49:27;5.43;;;3.40;;
49241;SDS011;35079;52.704;13.814;2023-10-09T03:51:54;5.13;;;2.58;;
49241;SDS011;35079;52.704;13.814;2023-10-09T03:54:20;4.13;;;2.63;;
49241;SDS011;35079;52.704;13.814;2023-10-09T03:56:47;7.07;;;2.63;;
49241;SDS011;35079;52.704;13.814;2023-10-09T03:59:19;6.25;;;2.60;;
49241;SDS011;35079;52.704;13.814;2023-10-09T04:01:45;3.97;;;2.60;;
49241;SDS011;35079;52.704;13.814;2023-10-09T04:04:12;3.83;;;2.22;;
49241;SDS011;35079;52.704;13.814;2023-10-09T04:06:39;5.57;;;2.58;;
49241;SDS011;35079;52.704;13.814;2023-10-09T04:11:43;5.05;;;2.50;;
49241;SDS011;35079;52.704;13.814;2023-10-09T04:14:11;5.88;;;2.78;;
49241;SDS011;35079;52.704;13.814;2023-10-09T04:17:00;4.75;;;2.80;;
49241;SDS011;35079;52.704;13.814;2023-10-09T04:19:31;4.70;;;3.30;;
49241;SDS011;35079;52.704;13.814;2023-10-09T04:22:04;7.00;;;3.47;;
49241;SDS011;35079;52.704;13.814;2023-10-09T04:24:33;7.57;;;3.13;;
49241;SDS011;35079;52.704;13.814;2023-10-09T04:27:09;4.10;;;2.80;;
49241;SDS011;35079;52.704;13.814;2023-10-09T04:29:34;3.40;;;2.72;;
49241;SDS011;35079;52.704;13.814;2023-10-09T04:32:03;4.47;;;2.75;;
49241;SDS011;35079;52.704;13.814;2023-10-09T04:34:33;4.85;;;2.78;;
49241;SDS011;35079;52.704;13.814;2023-10-09T04:37:06;7.35;;;3.47;;
49241;SDS011;35079;52.704;13.814;2023-10-09T04:39:40;3.67;;;2.60;;
49241;SDS011;35079;52.704;13.814;2023-10-09T04:42:26;4.93;;;2.63;;
49241;SDS011;35079;52.704;13.814;2023-10-09T04:45:02;8.65;;;3.05;;
49241;SDS011;35079;52.704;13.814;2023-10-09T04:47:28;7.28;;;2.65;;
49241;SDS011;35079;52.704;13.814;2023-10-09T04:50:10;5.00;;;2.90;;
49241;SDS011;35079;52.704;13.814;2023-10-09T04:52:39;4.88;;;2.78;;
49241;SDS011;35079;52.704;13.814;2023-10-09T04:55:06;4.85;;;3.13;;
49241;SDS011;35079;52.704;13.814;2023-10-09T04:57:36;6.07;;;3.10;;
49241;SDS011;35079;52.704;13.814;2023-10-09T05:00:08;6.45;;;3.30;;
49241;SDS011;35079;52.704;13.814;2023-10-09T05:02:54;5.43;;;3.10;;
49241;SDS011;35079;52.704;13.814;2023-10-09T05:05:28;7.07;;;3.20;;
49241;SDS011;35079;52.704;13.814;2023-10-09T05:08:07;6.82;;;3.08;;
49241;SDS011;35079;52.704;13.814;2023-10-09T05:11:08;6.00;;;3.10;;
49241;SDS011;35079;52.704;13.814;2023-10-09T05:13:41;7.03;;;3.13;;
49241;SDS011;35079;52.704;13.814;2023-10-09T05:16:16;6.68;;;3.40;;
49241;SDS011;35079;52.704;13.814;2023-10-09T05:18:53;4.38;;;3.10;;
49241;SDS011;35079;52.704;13.814;2023-10-09T05:21:46;7.28;;;3.85;;
49241;SDS011;35079;52.704;13.814;2023-10-09T05:24:13;5.68;;;3.80;;
49241;SDS011;35079;52.704;13.814;2023-10-09T05:26:39;5.90;;;3.63;;
49241;SDS011;35079;52.704;13.814;2023-10-09T05:29:21;5.75;;;3.80;;
49241;SDS011;35079;52.704;13.814;2023-10-09T05:32:00;4.68;;;3.60;;
49241;SDS011;35079;52.704;13.814;2023-10-09T05:34:39;9.68;;;4.25;;
49241;SDS011;35079;52.704;13.814;2023-10-09T05:37:26;8.57;;;4.00;;
49241;SDS011;35079;52.704;13.814;2023-10-09T05:39:58;5.78;;;4.10;;
49241;SDS011;35079;52.704;13.814;2023-10-09T05:42:40;6.38;;;3.85;;
49241;SDS011;35079;52.704;13.814;2023-10-09T05:45:07;6.90;;;4.20;;
49241;SDS011;35079;52.704;13.814;2023-10-09T05:47:45;6.13;;;4.03;;
49241;SDS011;35079;52.704;13.814;2023-10-09T05:50:35;6.03;;;4.20;;
49241;SDS011;35079;52.704;13.814;2023-10-09T05:53:03;7.35;;;4.10;;
49241;SDS011;35079;52.704;13.814;2023-10-09T05:55:29;4.95;;;4.18;;
49241;SDS011;35079;52.704;13.814;2023-10-09T05:58:33;6.38;;;3.78;;
49241;SDS011;35079;52.704;13.814;2023-10-09T06:01:28;5.47;;;3.25;;
49241;SDS011;35079;52.704;13.814;2023-10-09T06:04:12;5.80;;;4.18;;
49241;SDS011;35079;52.704;13.814;2023-10-09T06:06:41;14.73;;;4.88;;
49241;SDS011;35079;52.704;13.814;2023-10-09T06:09:13;18.40;;;6.35;;
49241;SDS011;35079;52.704;13.814;2023-10-09T06:11:46;6.93;;;4.50;;
49241;SDS011;35079;52.704;13.814;2023-10-09T06:14:17;5.68;;;3.90;;
49241;SDS011;35079;52.704;13.814;2023-10-09T06:16:56;6.40;;;3.85;;
49241;SDS011;35079;52.704;13.814;2023-10-09T06:19:23;7.07;;;4.00;;
49241;SDS011;35079;52.704;13.814;2023-10-09T06:21:57;5.13;;;3.95;;
49241;SDS011;35079;52.704;13.814;2023-10-09T06:24:42;6.18;;;4.00;;
49241;SDS011;35079;52.704;13.814;2023-10-09T06:27:20;5.65;;;4.25;;
49241;SDS011;35079;52.704;13.814;2023-10-09T06:30:10;6.55;;;4.30;;
49241;SDS011;35079;52.704;13.814;2023-10-09T06:32:51;6.53;;;4.75;;
49241;SDS011;35079;52.704;13.814;2023-10-09T06:35:34;5.68;;;4.53;;
49241;SDS011;35079;52.704;13.814;2023-10-09T06:38:04;8.93;;;5.03;;
49241;SDS011;35079;52.704;13.814;2023-10-09T06:40:47;11.10;;;5.55;;
49241;SDS011;35079;52.704;13.814;2023-10-09T06:43:16;8.02;;;5.30;;
49241;SDS011;35079;52.704;13.814;2023-10-09T06:45:52;8.85;;;5.82;;
49241;SDS011;35079;52.704;13.814;2023-10-09T06:48:22;8.82;;;5.65;;
49241;SDS011;35079;52.704;13.814;2023-10-09T06:53:51;8.93;;;5.50;;
49241;SDS011;35079;52.704;13.814;2023-10-09T06:56:18;6.00;;;5.10;;
49241;SDS011;35079;52.704;13.814;2023-10-09T06:58:56;6.20;;;5.60;;
49241;SDS011;35079;52.704;13.814;2023-10-09T07:01:30;6.50;;;4.75;;
49241;SDS011;35079;52.704;13.814;2023-10-09T07:04:11;7.45;;;5.03;;
49241;SDS011;35079;52.704;13.814;2023-10-09T07:06:55;7.20;;;4.90;;
49241;SDS011;35079;52.704;13.814;2023-10-09T07:09:21;8.20;;;6.10;;
49241;SDS011;35079;52.704;13.814;2023-10-09T07:11:48;9.30;;;6.53;;
49241;SDS011;35079;52.704;13.814;2023-10-09T07:14:19;13.98;;;8.05;;
49241;SDS011;35079;52.704;13.814;2023-10-09T07:16:58;7.07;;;5.43;;
49241;SDS011;35079;52.704;13.814;2023-10-09T07:19:48;8.25;;;5.28;;
49241;SDS011;35079;52.704;13.814;2023-10-09T07:22:33;7.75;;;4.93;;
49241;SDS011;35079;52.704;13.814;2023-10-09T07:25:04;7.07;;;5.22;;
49241;SDS011;35079;52.704;13.814;2023-10-09T07:27:52;7.57;;;4.93;;
49241;SDS011;35079;52.704;13.814;2023-10-09T07:30:23;8.05;;;4.28;;
49241;SDS011;35079;52.704;13.814;2023-10-09T07:35:21;7.90;;;4.78;;
49241;SDS011;35079;52.704;13.814;2023-10-09T07:38:05;7.72;;;4.80;;
49241;SDS011;35079;52.704;13.814;2023-10-09T07:40:35;8.88;;;5.50;;
49241;SDS011;35079;52.704;13.814;2023-10-09T07:43:25;6.30;;;5.00;;
49241;SDS011;35079;52.704;13.814;2023-10-09T07:45:56;6.30;;;5.07;;
49241;SDS011;35079;52.704;13.814;2023-10-09T07:48:48;8.88;;;5.47;;
49241;SDS011;35079;52.704;13.814;2023-10-09T07:51:20;6.45;;;5.20;;
49241;SDS011;35079;52.704;13.814;2023-10-09T07:54:20;9.20;;;6.00;;
49241;SDS011;35079;52.704;13.814;2023-10-09T07:56:59;8.50;;;6.05;;
49241;SDS011;35079;52.704;13.814;2023-10-09T07:59:50;8.10;;;6.18;;
49241;SDS011;35079;52.704;13.814;2023-10-09T08:02:25;11.05;;;6.82;;
49241;SDS011;35079;52.704;13.814;2023-10-09T08:05:00;10.45;;;6.55;;
49241;SDS011;35079;52.704;13.814;2023-10-09T08:10:38;10.52;;;7.43;;
49241;SDS011;35079;52.704;13.814;2023-10-09T08:13:26;10.85;;;8.15;;
49241;SDS011;35079;52.704;13.814;2023-10-09T08:16:27;10.98;;;7.55;;
49241;SDS011;35079;52.704;13.814;2023-10-09T08:19:04;9.00;;;7.63;;
49241;SDS011;35079;52.704;13.814;2023-10-09T08:21:49;11.20;;;8.05;;
49241;SDS011;35079;52.704;13.814;2023-10-09T08:24:33;12.45;;;8.05;;
49241;SDS011;35079;52.704;13.814;2023-10-09T08:27:14;12.32;;;8.63;;
49241;SDS011;35079;52.704;13.814;2023-10-09T08:30:15;10.73;;;8.35;;
49241;SDS011;35079;52.704;13.814;2023-10-09T08:33:20;11.37;;;7.53;;
49241;SDS011;35079;52.704;13.814;2023-10-09T08:36:41;11.18;;;7.68;;
49241;SDS011;35079;52.704;13.814;2023-10-09T08:39:16;11.15;;;7.78;;
49241;SDS011;35079;52.704;13.814;2023-10-09T08:42:09;15.38;;;7.30;;
49241;SDS011;35079;52.704;13.814;2023-10-09T08:44:39;12.82;;;8.70;;
49241;SDS011;35079;52.704;13.814;2023-10-09T08:47:22;13.38;;;8.93;;
49241;SDS011;35079;52.704;13.814;2023-10-09T08:49:51;10.23;;;7.20;;
49241;SDS011;35079;52.704;13.814;2023-10-09T08:52:29;10.32;;;7.70;;
49241;SDS011;35079;52.704;13.814;2023-10-09T09:01:36;11.88;;;7.25;;
49241;SDS011;35079;52.704;13.814;2023-10-09T09:04:44;12.38;;;7.30;;
49241;SDS011;35079;52.704;13.814;2023-10-09T09:07:32;10.25;;;8.13;;
49241;SDS011;35079;52.704;13.814;2023-10-09T09:13:47;10.23;;;7.43;;
49241;SDS011;35079;52.704;13.814;2023-10-09T09:16:32;9.38;;;6.93;;
49241;SDS011;35079;52.704;13.814;2023-10-09T09:29:41;11.90;;;7.22;;
49241;SDS011;35079;52.704;13.814;2023-10-09T09:42:39;9.10;;;6.63;;
49241;SDS011;35079;52.704;13.814;2023-10-09T09:45:15;10.70;;;7.20;;
49241;SDS011;35079;52.704;13.814;2023-10-09T09:47:49;11.98;;;7.47;;
49241;SDS011;35079;52.704;13.814;2023-10-09T09:50:49;11.13;;;6.32;;
49241;SDS011;35079;52.704;13.814;2023-10-09T10:00:23;8.82;;;6.70;;
49241;SDS011;35079;52.704;13.814;2023-10-09T10:06:29;9.77;;;6.47;;
49241;SDS011;35079;52.704;13.814;2023-10-09T10:19:16;7.50;;;5.80;;
49241;SDS011;35079;52.704;13.814;2023-10-09T10:28:41;9.40;;;6.60;;
49241;SDS011;35079;52.704;13.814;2023-10-09T10:31:11;8.60;;;6.28;;
49241;SDS011;35079;52.704;13.814;2023-10-09T10:36:20;9.43;;;5.90;;
49241;SDS011;35079;52.704;13.814;2023-10-09T10:39:02;7.45;;;5.53;;
49241;SDS011;35079;52.704;13.814;2023-10-09T10:42:01;7.63;;;6.07;;
49241;SDS011;35079;52.704;13.814;2023-10-09T10:44:30;10.82;;;6.10;;
49241;SDS011;35079;52.704;13.814;2023-10-09T10:47:06;9.48;;;6.85;;
49241;SDS011;35079;52.704;13.814;2023-10-09T10:49:53;13.23;;;7.60;;
49241;SDS011;35079;52.704;13.814;2023-10-09T10:52:24;11.38;;;7.15;;
49241;SDS011;35079;52.704;13.814;2023-10-09T10:55:22;9.18;;;6.88;;
49241;SDS011;35079;52.704;13.814;2023-10-09T10:58:00;9.10;;;6.25;;
49241;SDS011;35079;52.704;13.814;2023-10-09T11:00:30;8.05;;;7.13;;
49241;SDS011;35079;52.704;13.814;2023-10-09T11:03:20;9.57;;;7.82;;
49241;SDS011;35079;52.704;13.814;2023-10-09T11:06:01;10.55;;;7.22;;
49241;SDS011;35079;52.704;13.814;2023-10-09T11:08:46;10.50;;;7.75;;
49241;SDS011;35079;52.704;13.814;2023-10-09T11:11:19;9.55;;;7.22;;
49241;SDS011;35079;52.704;13.814;2023-10-09T11:13:45;9.25;;;7.05;;
49241;SDS011;35079;52.704;13.814;2023-10-09T11:16:24;9.98;;;6.65;;
49241;SDS011;35079;52.704;13.814;2023-10-09T11:19:05;7.70;;;6.32;;
49241;SDS011;35079;52.704;13.814;2023-10-09T11:21:48;7.22;;;5.40;;
49241;SDS011;35079;52.704;13.814;2023-10-09T11:24:23;7.28;;;6.05;;
49241;SDS011;35079;52.704;13.814;2023-10-09T11:26:52;11.27;;;7.45;;
49241;SDS011;35079;52.704;13.814;2023-10-09T11:29:22;7.85;;;6.35;;
49241;SDS011;35079;52.704;13.814;2023-10-09T11:34:26;7.97;;;5.97;;
49241;SDS011;35079;52.704;13.814;2023-10-09T11:37:12;8.35;;;6.43;;
49241;SDS011;35079;52.704;13.814;2023-10-09T11:39:41;6.00;;;4.78;;
49241;SDS011;35079;52.704;13.814;2023-10-09T11:42:20;7.47;;;5.25;;
49241;SDS011;35079;52.704;13.814;2023-10-09T11:45:06;9.15;;;5.78;;
49241;SDS011;35079;52.704;13.814;2023-10-09T11:47:53;7.38;;;5.00;;
49241;SDS011;35079;52.704;13.814;2023-10-09T11:50:46;7.00;;;5.15;;
49241;SDS011;35079;52.704;13.814;2023-10-09T11:56:24;7.22;;;5.05;;
49241;SDS011;35079;52.704;13.814;2023-10-09T11:59:05;7.60;;;4.82;;
49241;SDS011;35079;52.704;13.814;2023-10-09T12:01:34;5.22;;;4.13;;
49241;SDS011;35079;52.704;13.814;2023-10-09T12:04:50;7.32;;;5.18;;
49241;SDS011;35079;52.704;13.814;2023-10-09T12:07:23;8.55;;;5.20;;
49241;SDS011;35079;52.704;13.814;2023-10-09T12:10:03;8.25;;;5.85;;
49241;SDS011;35079;52.704;13.814;2023-10-09T12:16:24;9.45;;;5.63;;
49241;SDS011;35079;52.704;13.814;2023-10-09T12:19:16;7.60;;;6.05;;
49241;SDS011;35079;52.704;13.814;2023-10-09T12:21:43;7.90;;;5.50;;
49241;SDS011;35079;52.704;13.814;2023-10-09T12:24:09;8.10;;;6.03;;
49241;SDS011;35079;52.704;13.814;2023-10-09T12:26:37;9.13;;;5.95;;
49241;SDS011;35079;52.704;13.814;2023-10-09T12:29:26;8.50;;;6.05;;
49241;SDS011;35079;52.704;13.814;2023-10-09T12:32:10;8.35;;;6.30;;
49241;SDS011;35079;52.704;13.814;2023-10-09T12:34:36;9.32;;;6.93;;
49241;SDS011;35079;52.704;13.814;2023-10-09T12:37:03;10.40;;;6.78;;
49241;SDS011;35079;52.704;13.814;2023-10-09T12:39:32;7.70;;;6.50;;
49241;SDS011;35079;52.704;13.814;2023-10-09T12:42:05;7.03;;;5.63;;
49241;SDS011;35079;52.704;13.814;2023-10-09T12:44:37;6.75;;;5.40;;
49241;SDS011;35079;52.704;13.814;2023-10-09T12:47:05;6.65;;;5.75;;
49241;SDS011;35079;52.704;13.814;2023-10-09T12:49:31;10.90;;;6.50;;
49241;SDS011;35079;52.704;13.814;2023-10-09T12:51:57;8.32;;;6.43;;
49241;SDS011;35079;52.704;13.814;2023-10-09T12:54:30;8.77;;;5.78;;
49241;SDS011;35079;52.704;13.814;2023-10-09T12:57:02;8.95;;;6.15;;
49241;SDS011;35079;52.704;13.814;2023-10-09T12:59:27;8.20;;;5.80;;
49241;SDS011;35079;52.704;13.814;2023-10-09T13:04:31;8.45;;;6.40;;
49241;SDS011;35079;52.704;13.814;2023-10-09T13:06:57;8.88;;;6.70;;
49241;SDS011;35079;52.704;13.814;2023-10-09T13:09:27;9.20;;;5.90;;
49241;SDS011;35079;52.704;13.814;2023-10-09T13:12:08;8.38;;;6.30;;
49241;SDS011;35079;52.704;13.814;2023-10-09T13:14:43;6.78;;;6.00;;
49241;SDS011;35079;52.704;13.814;2023-10-09T13:17:08;6.70;;;6.00;;
49241;SDS011;35079;52.704;13.814;2023-10-09T13:19:35;8.95;;;7.07;;
49241;SDS011;35079;52.704;13.814;2023-10-09T13:22:00;9.35;;;6.80;;
49241;SDS011;35079;52.704;13.814;2023-10-09T13:24:28;10.48;;;6.35;;
49241;SDS011;35079;52.704;13.814;2023-10-09T13:26:58;8.52;;;6.18;;
49241;SDS011;35079;52.704;13.814;2023-10-09T13:29:24;9.82;;;6.95;;
49241;SDS011;35079;52.704;13.814;2023-10-09T13:31:50;8.57;;;6.50;;
49241;SDS011;35079;52.704;13.814;2023-10-09T13:34:23;9.63;;;6.82;;
49241;SDS011;35079;52.704;13.814;2023-10-09T13:36:53;8.98;;;6.82;;
49241;SDS011;35079;52.704;13.814;2023-10-09T13:39:19;10.80;;;7.82;;
49241;SDS011;35079;52.704;13.814;2023-10-09T13:41:55;10.85;;;7.88;;
49241;SDS011;35079;52.704;13.814;2023-10-09T13:47:11;12.00;;;7.88;;
49241;SDS011;35079;52.704;13.814;2023-10-09T13:49:44;11.88;;;7.45;;
49241;SDS011;35079;52.704;13.814;2023-10-09T13:52:10;10.38;;;7.80;;
49241;SDS011;35079;52.704;13.814;2023-10-09T13:54:43;8.27;;;7.20;;
49241;SDS011;35079;52.704;13.814;2023-10-09T13:57:15;9.02;;;7.60;;
49241;SDS011;35079;52.704;13.814;2023-10-09T13:59:41;7.72;;;6.93;;
49241;SDS011;35079;52.704;13.814;2023-10-09T14:05:21;7.15;;;5.90;;
49241;SDS011;35079;52.704;13.814;2023-10-09T14:08:19;9.20;;;6.60;;
49241;SDS011;35079;52.704;13.814;2023-10-09T14:10:49;9.10;;;6.53;;
49241;SDS011;35079;52.704;13.814;2023-10-09T14:13:15;9.30;;;6.55;;
49241;SDS011;35079;52.704;13.814;2023-10-09T14:16:19;7.57;;;6.35;;
49241;SDS011;35079;52.704;13.814;2023-10-09T14:18:58;7.28;;;6.47;;
49241;SDS011;35079;52.704;13.814;2023-10-09T14:25:16;10.32;;;5.90;;
49241;SDS011;35079;52.704;13.814;2023-10-09T14:28:06;6.95;;;5.20;;
49241;SDS011;35079;52.704;13.814;2023-10-09T14:30:43;7.25;;;5.55;;
49241;SDS011;35079;52.704;13.814;2023-10-09T14:33:12;7.28;;;5.60;;
49241;SDS011;35079;52.704;13.814;2023-10-09T14:39:08;9.35;;;5.55;;
49241;SDS011;35079;52.704;13.814;2023-10-09T14:41:38;9.07;;;6.32;;
49241;SDS011;35079;52.704;13.814;2023-10-09T14:44:05;8.25;;;6.20;;
49241;SDS011;35079;52.704;13.814;2023-10-09T14:46:43;10.00;;;5.97;;
49241;SDS011;35079;52.704;13.814;2023-10-09T14:49:17;8.77;;;6.15;;
49241;SDS011;35079;52.704;13.814;2023-10-09T14:52:14;8.05;;;5.60;;
49241;SDS011;35079;52.704;13.814;2023-10-09T14:54:45;6.90;;;5.53;;
49241;SDS011;35079;52.704;13.814;2023-10-09T14:57:11;8.48;;;6.28;;
49241;SDS011;35079;52.704;13.814;2023-10-09T14:59:38;7.25;;;5.75;;
49241;SDS011;35079;52.704;13.814;2023-10-09T15:02:05;7.78;;;6.32;;
49241;SDS011;35079;52.704;13.814;2023-10-09T15:04:32;8.60;;;6.05;;
49241;SDS011;35079;52.704;13.814;2023-10-09T15:07:10;7.25;;;5.93;;
49241;SDS011;35079;52.704;13.814;2023-10-09T15:09:40;8.18;;;6.22;;
49241;SDS011;35079;52.704;13.814;2023-10-09T15:12:06;7.82;;;5.28;;
49241;SDS011;35079;52.704;13.814;2023-10-09T15:14:41;8.27;;;6.25;;
49241;SDS011;35079;52.704;13.814;2023-10-09T15:17:08;10.63;;;7.88;;
49241;SDS011;35079;52.704;13.814;2023-10-09T15:19:34;9.00;;;6.72;;
49241;SDS011;35079;52.704;13.814;2023-10-09T15:21:59;8.32;;;6.20;;
49241;SDS011;35079;52.704;13.814;2023-10-09T15:24:25;10.00;;;6.20;;
49241;SDS011;35079;52.704;13.814;2023-10-09T15:26:55;7.75;;;5.25;;
49241;SDS011;35079;52.704;13.814;2023-10-09T15:29:28;5.70;;;5.15;;
49241;SDS011;35079;52.704;13.814;2023-10-09T15:31:55;6.25;;;5.03;;
49241;SDS011;35079;52.704;13.814;2023-10-09T15:34:21;8.90;;;5.22;;
49241;SDS011;35079;52.704;13.814;2023-10-09T15:36:48;8.15;;;5.85;;
49241;SDS011;35079;52.704;13.814;2023-10-09T15:39:13;7.45;;;5.40;;
49241;SDS011;35079;52.704;13.814;2023-10-09T15:41:44;7.55;;;4.85;;
49241;SDS011;35079;52.704;13.814;2023-10-09T15:44:13;5.78;;;5.13;;
49241;SDS011;35079;52.704;13.814;2023-10-09T15:46:39;8.82;;;5.97;;
49241;SDS011;35079;52.704;13.814;2023-10-09T15:49:05;8.45;;;6.50;;
49241;SDS011;35079;52.704;13.814;2023-10-09T15:51:34;9.75;;;6.20;;
49241;SDS011;35079;52.704;13.814;2023-10-09T15:54:00;9.95;;;6.55;;
49241;SDS011;35079;52.704;13.814;2023-10-09T15:56:26;12.88;;;9.52;;
49241;SDS011;35079;52.704;13.814;2023-10-09T15:58:52;9.93;;;7.07;;
49241;SDS011;35079;52.704;13.814;2023-10-09T16:01:19;10.00;;;5.82;;
49241;SDS011;35079;52.704;13.814;2023-10-09T16:03:45;5.78;;;5.15;;
49241;SDS011;35079;52.704;13.814;2023-10-09T16:06:14;8.25;;;5.60;;
49241;SDS011;35079;52.704;13.814;2023-10-09T16:08:42;7.72;;;5.15;;
49241;SDS011;35079;52.704;13.814;2023-10-09T16:11:10;8.25;;;5.60;;
49241;SDS011;35079;52.704;13.814;2023-10-09T16:13:37;9.15;;;5.07;;
49241;SDS011;35079;52.704;13.814;2023-10-09T16:16:04;7.53;;;4.72;;
49241;SDS011;35079;52.704;13.814;2023-10-09T16:18:34;7.30;;;5.10;;
49241;SDS011;35079;52.704;13.814;2023-10-09T16:21:02;7.53;;;4.78;;
49241;SDS011;35079;52.704;13.814;2023-10-09T16:23:30;6.93;;;5.22;;
49241;SDS011;35079;52.704;13.814;2023-10-09T16:25:56;6.53;;;5.13;;
49241;SDS011;35079;52.704;13.814;2023-10-09T16:28:23;9.25;;;5.68;;
49241;SDS011;35079;52.704;13.814;2023-10-09T16:30:49;7.88;;;5.25;;
49241;SDS011;35079;52.704;13.814;2023-10-09T16:33:15;6.15;;;5.00;;
49241;SDS011;35079;52.704;13.814;2023-10-09T16:35:41;7.78;;;5.13;;
49241;SDS011;35079;52.704;13.814;2023-10-09T16:38:09;7.57;;;4.85;;
49241;SDS011;35079;52.704;13.814;2023-10-09T16:40:38;11.70;;;5.40;;
49241;SDS011;35079;52.704;13.814;2023-10-09T16:43:04;6.78;;;4.80;;
49241;SDS011;35079;52.704;13.814;2023-10-09T16:45:30;7.93;;;5.38;;
49241;SDS011;35079;52.704;13.814;2023-10-09T16:48:00;8.38;;;5.38;;
49241;SDS011;35079;52.704;13.814;2023-10-09T16:50:30;11.95;;;5.10;;
49241;SDS011;35079;52.704;13.814;2023-10-09T16:52:56;6.32;;;5.25;;
49241;SDS011;35079;52.704;13.814;2023-10-09T16:55:22;10.77;;;5.72;;
49241;SDS011;35079;52.704;13.814;2023-10-09T16:57:49;6.90;;;5.10;;
49241;SDS011;35079;52.704;13.814;2023-10-09T17:00:16;7.68;;;5.15;;
49241;SDS011;35079;52.704;13.814;2023-10-09T17:03:00;7.85;;;5.13;;